sensor_id;sensor_type;location;lat;lon;timestamp;P1;durP1;ratioP1;P2;durP2;ratioP2
36551;SDS011;22559;54.176;12.102;2023-07-02T00:02:08;5.93;;;3.20;;
36551;SDS011;22559;54.176;12.102;2023-07-02T00:04:34;7.47;;;3.63;;
36551;SDS011;22559;54.176;12.102;2023-07-02T00:06:59;7.07;;;3.27;;
36551;SDS011;22559;54.176;12.102;2023-07-02T00:09:25;3.20;;;2.90;;
36551;SDS011;22559;54.176;12.102;2023-07-02T00:11:54;4.77;;;2.77;;
36551;SDS011;22559;54.176;12.102;2023-07-02T00:14:19;5.60;;;3.17;;
36551;SDS011;22559;54.176;12.102;2023-07-02T00:16:46;9.57;;;3.00;;
36551;SDS011;22559;54.176;12.102;2023-07-02T00:19:15;4.40;;;3.17;;
36551;SDS011;22559;54.176;12.102;2023-07-02T00:21:41;5.77;;;3.00;;
36551;SDS011;22559;54.176;12.102;2023-07-02T00:24:07;5.73;;;3.20;;
36551;SDS011;22559;54.176;12.102;2023-07-02T00:26:37;4.83;;;3.30;;
36551;SDS011;22559;54.176;12.102;2023-07-02T00:29:05;6.73;;;3.10;;
36551;SDS011;22559;54.176;12.102;2023-07-02T00:31:31;5.70;;;3.47;;
36551;SDS011;22559;54.176;12.102;2023-07-02T00:33:58;7.03;;;3.33;;
36551;SDS011;22559;54.176;12.102;2023-07-02T00:36:25;7.53;;;3.37;;
36551;SDS011;22559;54.176;12.102;2023-07-02T00:38:51;5.07;;;3.20;;
36551;SDS011;22559;54.176;12.102;2023-07-02T00:41:17;6.80;;;3.50;;
36551;SDS011;22559;54.176;12.102;2023-07-02T00:43:43;7.00;;;3.43;;
36551;SDS011;22559;54.176;12.102;2023-07-02T00:48:48;7.03;;;3.30;;
36551;SDS011;22559;54.176;12.102;2023-07-02T00:51:16;11.43;;;3.80;;
36551;SDS011;22559;54.176;12.102;2023-07-02T00:53:44;8.67;;;3.70;;
36551;SDS011;22559;54.176;12.102;2023-07-02T00:56:10;8.23;;;3.60;;
36551;SDS011;22559;54.176;12.102;2023-07-02T00:58:37;5.77;;;3.60;;
36551;SDS011;22559;54.176;12.102;2023-07-02T01:01:05;5.60;;;3.53;;
36551;SDS011;22559;54.176;12.102;2023-07-02T01:03:31;7.13;;;3.77;;
36551;SDS011;22559;54.176;12.102;2023-07-02T01:05:58;9.53;;;3.63;;
36551;SDS011;22559;54.176;12.102;2023-07-02T01:08:24;5.90;;;3.37;;
36551;SDS011;22559;54.176;12.102;2023-07-02T01:10:49;7.40;;;3.63;;
36551;SDS011;22559;54.176;12.102;2023-07-02T01:13:16;8.57;;;3.40;;
36551;SDS011;22559;54.176;12.102;2023-07-02T01:15:44;8.77;;;3.90;;
36551;SDS011;22559;54.176;12.102;2023-07-02T01:18:11;7.97;;;3.70;;
36551;SDS011;22559;54.176;12.102;2023-07-02T01:20:39;10.97;;;3.83;;
36551;SDS011;22559;54.176;12.102;2023-07-02T01:23:06;6.03;;;3.20;;
36551;SDS011;22559;54.176;12.102;2023-07-02T01:25:34;5.40;;;3.50;;
36551;SDS011;22559;54.176;12.102;2023-07-02T01:28:01;6.27;;;3.30;;
36551;SDS011;22559;54.176;12.102;2023-07-02T01:30:27;6.27;;;3.20;;
36551;SDS011;22559;54.176;12.102;2023-07-02T01:32:53;10.63;;;6.93;;
36551;SDS011;22559;54.176;12.102;2023-07-02T01:35:18;5.63;;;3.97;;
36551;SDS011;22559;54.176;12.102;2023-07-02T01:37:44;9.27;;;3.77;;
36551;SDS011;22559;54.176;12.102;2023-07-02T01:40:10;7.57;;;3.50;;
36551;SDS011;22559;54.176;12.102;2023-07-02T01:42:37;5.07;;;3.40;;
36551;SDS011;22559;54.176;12.102;2023-07-02T01:45:03;6.60;;;3.03;;
36551;SDS011;22559;54.176;12.102;2023-07-02T01:47:29;10.97;;;4.13;;
36551;SDS011;22559;54.176;12.102;2023-07-02T01:49:55;4.67;;;3.40;;
36551;SDS011;22559;54.176;12.102;2023-07-02T01:52:21;5.70;;;3.37;;
36551;SDS011;22559;54.176;12.102;2023-07-02T01:54:46;8.03;;;3.70;;
36551;SDS011;22559;54.176;12.102;2023-07-02T01:57:12;12.87;;;7.63;;
36551;SDS011;22559;54.176;12.102;2023-07-02T01:59:38;8.40;;;6.23;;
36551;SDS011;22559;54.176;12.102;2023-07-02T02:02:03;12.63;;;5.13;;
36551;SDS011;22559;54.176;12.102;2023-07-02T02:04:29;8.43;;;5.87;;
36551;SDS011;22559;54.176;12.102;2023-07-02T02:06:55;6.13;;;3.80;;
36551;SDS011;22559;54.176;12.102;2023-07-02T02:09:21;8.13;;;4.93;;
36551;SDS011;22559;54.176;12.102;2023-07-02T02:11:50;8.47;;;4.00;;
36551;SDS011;22559;54.176;12.102;2023-07-02T02:14:17;8.07;;;5.93;;
36551;SDS011;22559;54.176;12.102;2023-07-02T02:16:43;9.27;;;6.20;;
36551;SDS011;22559;54.176;12.102;2023-07-02T02:19:12;6.37;;;4.07;;
36551;SDS011;22559;54.176;12.102;2023-07-02T02:21:39;5.23;;;3.90;;
36551;SDS011;22559;54.176;12.102;2023-07-02T02:24:08;8.83;;;4.10;;
36551;SDS011;22559;54.176;12.102;2023-07-02T02:26:34;10.80;;;6.03;;
36551;SDS011;22559;54.176;12.102;2023-07-02T02:29:00;9.47;;;4.07;;
36551;SDS011;22559;54.176;12.102;2023-07-02T02:31:26;6.87;;;3.90;;
36551;SDS011;22559;54.176;12.102;2023-07-02T02:33:52;9.17;;;4.70;;
36551;SDS011;22559;54.176;12.102;2023-07-02T02:36:18;9.17;;;4.40;;
36551;SDS011;22559;54.176;12.102;2023-07-02T02:38:43;5.13;;;4.10;;
36551;SDS011;22559;54.176;12.102;2023-07-02T02:41:09;5.60;;;3.70;;
36551;SDS011;22559;54.176;12.102;2023-07-02T02:43:35;7.93;;;3.47;;
36551;SDS011;22559;54.176;12.102;2023-07-02T02:46:00;7.10;;;3.80;;
36551;SDS011;22559;54.176;12.102;2023-07-02T02:48:26;9.93;;;3.53;;
36551;SDS011;22559;54.176;12.102;2023-07-02T02:50:52;7.37;;;3.50;;
36551;SDS011;22559;54.176;12.102;2023-07-02T02:53:17;10.90;;;3.63;;
36551;SDS011;22559;54.176;12.102;2023-07-02T02:55:43;4.00;;;3.03;;
36551;SDS011;22559;54.176;12.102;2023-07-02T02:58:08;5.07;;;3.73;;
36551;SDS011;22559;54.176;12.102;2023-07-02T03:00:34;6.67;;;3.40;;
36551;SDS011;22559;54.176;12.102;2023-07-02T03:03:00;11.17;;;3.90;;
36551;SDS011;22559;54.176;12.102;2023-07-02T03:05:25;9.27;;;4.00;;
36551;SDS011;22559;54.176;12.102;2023-07-02T03:07:51;6.30;;;3.80;;
36551;SDS011;22559;54.176;12.102;2023-07-02T03:10:17;8.17;;;3.37;;
36551;SDS011;22559;54.176;12.102;2023-07-02T03:12:43;5.90;;;3.53;;
36551;SDS011;22559;54.176;12.102;2023-07-02T03:15:09;4.13;;;3.80;;
36551;SDS011;22559;54.176;12.102;2023-07-02T03:17:35;7.10;;;3.47;;
36551;SDS011;22559;54.176;12.102;2023-07-02T03:20:01;8.03;;;4.07;;
36551;SDS011;22559;54.176;12.102;2023-07-02T03:22:29;7.17;;;3.80;;
36551;SDS011;22559;54.176;12.102;2023-07-02T03:24:55;6.93;;;4.23;;
36551;SDS011;22559;54.176;12.102;2023-07-02T03:27:20;11.43;;;3.97;;
36551;SDS011;22559;54.176;12.102;2023-07-02T03:29:46;7.20;;;3.90;;
36551;SDS011;22559;54.176;12.102;2023-07-02T03:32:11;9.90;;;4.17;;
36551;SDS011;22559;54.176;12.102;2023-07-02T03:34:37;4.57;;;3.50;;
36551;SDS011;22559;54.176;12.102;2023-07-02T03:37:03;6.03;;;3.87;;
36551;SDS011;22559;54.176;12.102;2023-07-02T03:39:28;8.00;;;3.90;;
36551;SDS011;22559;54.176;12.102;2023-07-02T03:41:54;8.63;;;3.80;;
36551;SDS011;22559;54.176;12.102;2023-07-02T03:44:20;5.83;;;3.57;;
36551;SDS011;22559;54.176;12.102;2023-07-02T03:46:45;9.47;;;4.27;;
36551;SDS011;22559;54.176;12.102;2023-07-02T03:49:11;4.70;;;3.43;;
36551;SDS011;22559;54.176;12.102;2023-07-02T03:51:36;9.83;;;4.60;;
36551;SDS011;22559;54.176;12.102;2023-07-02T03:54:03;6.07;;;3.60;;
36551;SDS011;22559;54.176;12.102;2023-07-02T03:56:29;8.10;;;4.23;;
36551;SDS011;22559;54.176;12.102;2023-07-02T03:58:54;9.47;;;4.23;;
36551;SDS011;22559;54.176;12.102;2023-07-02T04:01:20;12.43;;;4.37;;
36551;SDS011;22559;54.176;12.102;2023-07-02T04:03:50;9.13;;;4.57;;
36551;SDS011;22559;54.176;12.102;2023-07-02T04:06:18;8.70;;;4.33;;
36551;SDS011;22559;54.176;12.102;2023-07-02T04:08:44;12.13;;;4.80;;
36551;SDS011;22559;54.176;12.102;2023-07-02T04:11:10;6.63;;;4.37;;
36551;SDS011;22559;54.176;12.102;2023-07-02T04:13:37;7.17;;;4.83;;
36551;SDS011;22559;54.176;12.102;2023-07-02T04:16:03;5.53;;;4.43;;
36551;SDS011;22559;54.176;12.102;2023-07-02T04:18:29;5.10;;;4.40;;
36551;SDS011;22559;54.176;12.102;2023-07-02T04:20:55;6.43;;;4.10;;
36551;SDS011;22559;54.176;12.102;2023-07-02T04:23:21;6.23;;;4.30;;
36551;SDS011;22559;54.176;12.102;2023-07-02T04:25:46;4.97;;;4.00;;
36551;SDS011;22559;54.176;12.102;2023-07-02T04:28:12;6.13;;;4.50;;
36551;SDS011;22559;54.176;12.102;2023-07-02T04:30:38;10.87;;;5.43;;
36551;SDS011;22559;54.176;12.102;2023-07-02T04:33:03;7.13;;;4.83;;
36551;SDS011;22559;54.176;12.102;2023-07-02T04:35:30;10.97;;;5.30;;
36551;SDS011;22559;54.176;12.102;2023-07-02T04:37:56;11.40;;;4.57;;
36551;SDS011;22559;54.176;12.102;2023-07-02T04:40:22;6.80;;;5.50;;
36551;SDS011;22559;54.176;12.102;2023-07-02T04:42:48;9.17;;;4.87;;
36551;SDS011;22559;54.176;12.102;2023-07-02T04:45:14;10.20;;;4.80;;
36551;SDS011;22559;54.176;12.102;2023-07-02T04:47:44;8.43;;;4.87;;
36551;SDS011;22559;54.176;12.102;2023-07-02T04:50:10;7.73;;;4.77;;
36551;SDS011;22559;54.176;12.102;2023-07-02T04:52:37;8.17;;;5.00;;
36551;SDS011;22559;54.176;12.102;2023-07-02T04:55:03;7.53;;;5.00;;
36551;SDS011;22559;54.176;12.102;2023-07-02T04:57:29;10.23;;;4.67;;
36551;SDS011;22559;54.176;12.102;2023-07-02T04:59:55;7.83;;;5.20;;
36551;SDS011;22559;54.176;12.102;2023-07-02T05:02:21;6.43;;;4.63;;
36551;SDS011;22559;54.176;12.102;2023-07-02T05:04:47;7.07;;;5.63;;
36551;SDS011;22559;54.176;12.102;2023-07-02T05:07:12;7.70;;;4.67;;
36551;SDS011;22559;54.176;12.102;2023-07-02T05:09:38;9.30;;;5.53;;
36551;SDS011;22559;54.176;12.102;2023-07-02T05:12:03;8.40;;;5.43;;
36551;SDS011;22559;54.176;12.102;2023-07-02T05:14:29;10.47;;;5.20;;
36551;SDS011;22559;54.176;12.102;2023-07-02T05:16:55;11.83;;;5.90;;
36551;SDS011;22559;54.176;12.102;2023-07-02T05:19:20;11.37;;;5.30;;
36551;SDS011;22559;54.176;12.102;2023-07-02T05:21:46;6.60;;;5.30;;
36551;SDS011;22559;54.176;12.102;2023-07-02T05:24:12;12.80;;;5.47;;
36551;SDS011;22559;54.176;12.102;2023-07-02T05:26:37;11.90;;;5.40;;
36551;SDS011;22559;54.176;12.102;2023-07-02T05:29:03;8.20;;;4.67;;
36551;SDS011;22559;54.176;12.102;2023-07-02T05:31:30;8.17;;;5.30;;
36551;SDS011;22559;54.176;12.102;2023-07-02T05:33:56;13.63;;;5.90;;
36551;SDS011;22559;54.176;12.102;2023-07-02T05:36:21;11.07;;;5.07;;
36551;SDS011;22559;54.176;12.102;2023-07-02T05:38:47;12.47;;;5.43;;
36551;SDS011;22559;54.176;12.102;2023-07-02T05:41:19;9.07;;;4.87;;
36551;SDS011;22559;54.176;12.102;2023-07-02T05:43:45;9.37;;;4.87;;
36551;SDS011;22559;54.176;12.102;2023-07-02T05:46:11;9.87;;;5.30;;
36551;SDS011;22559;54.176;12.102;2023-07-02T05:48:39;9.77;;;4.90;;
36551;SDS011;22559;54.176;12.102;2023-07-02T05:51:05;8.13;;;4.97;;
36551;SDS011;22559;54.176;12.102;2023-07-02T05:53:31;10.97;;;4.70;;
36551;SDS011;22559;54.176;12.102;2023-07-02T05:55:56;8.83;;;5.00;;
36551;SDS011;22559;54.176;12.102;2023-07-02T05:58:22;13.07;;;5.53;;
36551;SDS011;22559;54.176;12.102;2023-07-02T06:00:48;9.27;;;4.90;;
36551;SDS011;22559;54.176;12.102;2023-07-02T06:03:14;9.80;;;5.10;;
36551;SDS011;22559;54.176;12.102;2023-07-02T06:05:45;8.93;;;4.77;;
36551;SDS011;22559;54.176;12.102;2023-07-02T06:08:15;13.57;;;5.23;;
36551;SDS011;22559;54.176;12.102;2023-07-02T06:10:41;13.70;;;4.50;;
36551;SDS011;22559;54.176;12.102;2023-07-02T06:13:07;10.40;;;5.03;;
36551;SDS011;22559;54.176;12.102;2023-07-02T06:15:33;13.60;;;5.03;;
36551;SDS011;22559;54.176;12.102;2023-07-02T06:17:58;9.27;;;4.87;;
36551;SDS011;22559;54.176;12.102;2023-07-02T06:20:24;9.67;;;4.53;;
36551;SDS011;22559;54.176;12.102;2023-07-02T06:22:49;10.27;;;5.13;;
36551;SDS011;22559;54.176;12.102;2023-07-02T06:25:15;7.77;;;4.67;;
36551;SDS011;22559;54.176;12.102;2023-07-02T06:27:41;10.73;;;4.67;;
36551;SDS011;22559;54.176;12.102;2023-07-02T06:30:06;14.57;;;5.50;;
36551;SDS011;22559;54.176;12.102;2023-07-02T06:32:32;11.77;;;4.77;;
36551;SDS011;22559;54.176;12.102;2023-07-02T06:34:58;11.70;;;5.50;;
36551;SDS011;22559;54.176;12.102;2023-07-02T06:37:24;9.93;;;5.50;;
36551;SDS011;22559;54.176;12.102;2023-07-02T06:39:49;15.13;;;5.40;;
36551;SDS011;22559;54.176;12.102;2023-07-02T06:42:15;10.03;;;4.67;;
36551;SDS011;22559;54.176;12.102;2023-07-02T06:44:41;12.90;;;5.70;;
36551;SDS011;22559;54.176;12.102;2023-07-02T06:47:07;10.38;;;4.30;;
36551;SDS011;22559;54.176;12.102;2023-07-02T06:49:32;7.00;;;5.18;;
36551;SDS011;22559;54.176;12.102;2023-07-02T06:51:58;10.25;;;4.90;;
36551;SDS011;22559;54.176;12.102;2023-07-02T06:54:25;11.00;;;5.25;;
36551;SDS011;22559;54.176;12.102;2023-07-02T06:56:51;15.68;;;5.22;;
36551;SDS011;22559;54.176;12.102;2023-07-02T06:59:20;11.50;;;5.05;;
36551;SDS011;22559;54.176;12.102;2023-07-02T07:01:46;13.55;;;5.93;;
36551;SDS011;22559;54.176;12.102;2023-07-02T07:04:12;12.40;;;5.00;;
36551;SDS011;22559;54.176;12.102;2023-07-02T07:06:37;12.57;;;5.70;;
36551;SDS011;22559;54.176;12.102;2023-07-02T07:09:03;13.98;;;5.03;;
36551;SDS011;22559;54.176;12.102;2023-07-02T07:11:29;12.25;;;5.45;;
36551;SDS011;22559;54.176;12.102;2023-07-02T07:13:55;11.10;;;5.85;;
36551;SDS011;22559;54.176;12.102;2023-07-02T07:16:20;13.48;;;5.63;;
36551;SDS011;22559;54.176;12.102;2023-07-02T07:18:47;17.95;;;6.75;;
36551;SDS011;22559;54.176;12.102;2023-07-02T07:21:12;14.13;;;6.27;;
36551;SDS011;22559;54.176;12.102;2023-07-02T07:23:39;15.13;;;6.25;;
36551;SDS011;22559;54.176;12.102;2023-07-02T07:26:04;9.80;;;5.60;;
36551;SDS011;22559;54.176;12.102;2023-07-02T07:28:30;13.77;;;6.15;;
36551;SDS011;22559;54.176;12.102;2023-07-02T07:30:56;14.68;;;6.32;;
36551;SDS011;22559;54.176;12.102;2023-07-02T07:33:21;13.80;;;6.37;;
36551;SDS011;22559;54.176;12.102;2023-07-02T07:35:47;14.03;;;6.03;;
36551;SDS011;22559;54.176;12.102;2023-07-02T07:38:13;12.53;;;6.10;;
36551;SDS011;22559;54.176;12.102;2023-07-02T07:40:39;13.80;;;5.50;;
36551;SDS011;22559;54.176;12.102;2023-07-02T07:43:05;14.15;;;6.07;;
36551;SDS011;22559;54.176;12.102;2023-07-02T07:45:31;13.93;;;6.00;;
36551;SDS011;22559;54.176;12.102;2023-07-02T07:47:58;12.52;;;5.75;;
36551;SDS011;22559;54.176;12.102;2023-07-02T07:50:23;14.52;;;6.10;;
36551;SDS011;22559;54.176;12.102;2023-07-02T07:52:49;12.10;;;5.05;;
36551;SDS011;22559;54.176;12.102;2023-07-02T07:55:16;12.88;;;5.70;;
36551;SDS011;22559;54.176;12.102;2023-07-02T07:57:41;9.38;;;4.85;;
36551;SDS011;22559;54.176;12.102;2023-07-02T08:00:08;7.53;;;4.82;;
36551;SDS011;22559;54.176;12.102;2023-07-02T08:02:37;11.93;;;5.55;;
36551;SDS011;22559;54.176;12.102;2023-07-02T08:05:03;10.68;;;5.45;;
36551;SDS011;22559;54.176;12.102;2023-07-02T08:07:32;9.45;;;5.43;;
36551;SDS011;22559;54.176;12.102;2023-07-02T08:09:58;10.05;;;5.90;;
36551;SDS011;22559;54.176;12.102;2023-07-02T08:12:24;11.55;;;6.32;;
36551;SDS011;22559;54.176;12.102;2023-07-02T08:14:52;12.98;;;5.78;;
36551;SDS011;22559;54.176;12.102;2023-07-02T08:17:18;11.63;;;5.60;;
36551;SDS011;22559;54.176;12.102;2023-07-02T08:19:43;11.43;;;5.40;;
36551;SDS011;22559;54.176;12.102;2023-07-02T08:22:09;12.02;;;5.85;;
36551;SDS011;22559;54.176;12.102;2023-07-02T08:24:35;12.00;;;6.07;;
36551;SDS011;22559;54.176;12.102;2023-07-02T08:27:00;11.35;;;6.20;;
36551;SDS011;22559;54.176;12.102;2023-07-02T08:29:27;11.63;;;5.93;;
36551;SDS011;22559;54.176;12.102;2023-07-02T08:31:56;12.40;;;6.13;;
36551;SDS011;22559;54.176;12.102;2023-07-02T08:34:22;16.20;;;6.57;;
36551;SDS011;22559;54.176;12.102;2023-07-02T08:36:48;10.90;;;6.38;;
36551;SDS011;22559;54.176;12.102;2023-07-02T08:39:14;14.05;;;6.53;;
36551;SDS011;22559;54.176;12.102;2023-07-02T08:41:43;9.80;;;5.82;;
36551;SDS011;22559;54.176;12.102;2023-07-02T08:44:11;12.52;;;5.72;;
36551;SDS011;22559;54.176;12.102;2023-07-02T08:46:38;11.48;;;6.30;;
36551;SDS011;22559;54.176;12.102;2023-07-02T08:49:06;12.38;;;6.05;;
36551;SDS011;22559;54.176;12.102;2023-07-02T08:51:32;9.43;;;6.20;;
36551;SDS011;22559;54.176;12.102;2023-07-02T08:53:58;12.50;;;5.57;;
36551;SDS011;22559;54.176;12.102;2023-07-02T08:56:23;13.23;;;5.72;;
36551;SDS011;22559;54.176;12.102;2023-07-02T08:58:51;13.02;;;5.93;;
36551;SDS011;22559;54.176;12.102;2023-07-02T09:01:17;11.63;;;6.18;;
36551;SDS011;22559;54.176;12.102;2023-07-02T09:03:42;14.20;;;5.97;;
36551;SDS011;22559;54.176;12.102;2023-07-02T09:06:09;12.98;;;6.45;;
36551;SDS011;22559;54.176;12.102;2023-07-02T09:08:35;10.38;;;5.30;;
36551;SDS011;22559;54.176;12.102;2023-07-02T09:11:11;22.10;;;6.45;;
36551;SDS011;22559;54.176;12.102;2023-07-02T09:19:04;22.73;;;7.00;;
36551;SDS011;22559;54.176;12.102;2023-07-02T09:21:46;15.37;;;5.67;;
36551;SDS011;22559;54.176;12.102;2023-07-02T09:24:20;14.33;;;5.20;;
36551;SDS011;22559;54.176;12.102;2023-07-02T09:26:52;16.30;;;5.60;;
36551;SDS011;22559;54.176;12.102;2023-07-02T09:29:25;19.20;;;6.13;;
36551;SDS011;22559;54.176;12.102;2023-07-02T09:31:53;15.27;;;6.50;;
36551;SDS011;22559;54.176;12.102;2023-07-02T09:34:26;14.17;;;9.47;;
36551;SDS011;22559;54.176;12.102;2023-07-02T09:36:56;15.27;;;5.57;;
36551;SDS011;22559;54.176;12.102;2023-07-02T09:39:26;16.53;;;5.70;;
36551;SDS011;22559;54.176;12.102;2023-07-02T09:41:57;15.57;;;6.00;;
36551;SDS011;22559;54.176;12.102;2023-07-02T09:44:26;12.60;;;6.20;;
36551;SDS011;22559;54.176;12.102;2023-07-02T09:47:03;15.45;;;6.78;;
36551;SDS011;22559;54.176;12.102;2023-07-02T09:49:31;11.87;;;7.03;;
36551;SDS011;22559;54.176;12.102;2023-07-02T09:52:07;13.00;;;6.10;;
36551;SDS011;22559;54.176;12.102;2023-07-02T09:54:34;9.23;;;5.85;;
36551;SDS011;22559;54.176;12.102;2023-07-02T09:57:01;10.65;;;6.40;;
36551;SDS011;22559;54.176;12.102;2023-07-02T09:59:27;13.80;;;6.03;;
36551;SDS011;22559;54.176;12.102;2023-07-02T10:01:54;12.70;;;6.13;;
36551;SDS011;22559;54.176;12.102;2023-07-02T10:04:20;11.88;;;5.50;;
36551;SDS011;22559;54.176;12.102;2023-07-02T10:06:55;11.65;;;6.32;;
36551;SDS011;22559;54.176;12.102;2023-07-02T10:09:34;13.82;;;5.50;;
36551;SDS011;22559;54.176;12.102;2023-07-02T10:12:02;18.83;;;5.78;;
36551;SDS011;22559;54.176;12.102;2023-07-02T10:14:40;9.70;;;4.65;;
36551;SDS011;22559;54.176;12.102;2023-07-02T10:17:09;14.57;;;4.93;;
36551;SDS011;22559;54.176;12.102;2023-07-02T10:19:35;10.13;;;3.77;;
36551;SDS011;22559;54.176;12.102;2023-07-02T10:22:01;6.03;;;3.60;;
36551;SDS011;22559;54.176;12.102;2023-07-02T10:24:28;9.03;;;3.50;;
36551;SDS011;22559;54.176;12.102;2023-07-02T10:26:54;5.47;;;3.57;;
36551;SDS011;22559;54.176;12.102;2023-07-02T10:29:25;3.43;;;3.13;;
36551;SDS011;22559;54.176;12.102;2023-07-02T10:31:52;6.80;;;3.47;;
36551;SDS011;22559;54.176;12.102;2023-07-02T10:34:29;8.77;;;4.13;;
36551;SDS011;22559;54.176;12.102;2023-07-02T10:36:54;6.83;;;4.70;;
36551;SDS011;22559;54.176;12.102;2023-07-02T10:39:20;8.90;;;4.85;;
36551;SDS011;22559;54.176;12.102;2023-07-02T10:41:46;12.57;;;4.93;;
36551;SDS011;22559;54.176;12.102;2023-07-02T10:44:12;8.40;;;5.57;;
36551;SDS011;22559;54.176;12.102;2023-07-02T10:46:47;12.77;;;6.18;;
36551;SDS011;22559;54.176;12.102;2023-07-02T10:49:14;10.23;;;4.93;;
36551;SDS011;22559;54.176;12.102;2023-07-02T10:51:42;7.72;;;5.05;;
36551;SDS011;22559;54.176;12.102;2023-07-02T10:54:08;9.88;;;5.15;;
36551;SDS011;22559;54.176;12.102;2023-07-02T10:56:34;10.13;;;4.70;;
36551;SDS011;22559;54.176;12.102;2023-07-02T10:59:00;8.75;;;5.30;;
36551;SDS011;22559;54.176;12.102;2023-07-02T11:01:26;9.82;;;3.83;;
36551;SDS011;22559;54.176;12.102;2023-07-02T11:04:00;8.45;;;4.00;;
36551;SDS011;22559;54.176;12.102;2023-07-02T11:06:29;10.35;;;4.15;;
36551;SDS011;22559;54.176;12.102;2023-07-02T11:08:56;7.63;;;5.13;;
36551;SDS011;22559;54.176;12.102;2023-07-02T11:11:22;10.55;;;4.50;;
36551;SDS011;22559;54.176;12.102;2023-07-02T11:13:48;8.85;;;4.22;;
36551;SDS011;22559;54.176;12.102;2023-07-02T11:18:44;8.65;;;3.85;;
36551;SDS011;22559;54.176;12.102;2023-07-02T11:21:09;11.80;;;5.35;;
36551;SDS011;22559;54.176;12.102;2023-07-02T11:23:35;8.52;;;3.88;;
36551;SDS011;22559;54.176;12.102;2023-07-02T11:26:01;7.88;;;4.18;;
36551;SDS011;22559;54.176;12.102;2023-07-02T11:28:28;9.43;;;4.05;;
36551;SDS011;22559;54.176;12.102;2023-07-02T11:30:56;10.75;;;4.43;;
36551;SDS011;22559;54.176;12.102;2023-07-02T11:33:36;11.68;;;4.10;;
36551;SDS011;22559;54.176;12.102;2023-07-02T11:36:02;9.57;;;3.97;;
36551;SDS011;22559;54.176;12.102;2023-07-02T11:38:29;11.40;;;3.92;;
36551;SDS011;22559;54.176;12.102;2023-07-02T11:40:55;5.70;;;3.40;;
36551;SDS011;22559;54.176;12.102;2023-07-02T11:43:20;10.27;;;4.07;;
36551;SDS011;22559;54.176;12.102;2023-07-02T11:45:46;10.63;;;4.38;;
36551;SDS011;22559;54.176;12.102;2023-07-02T11:48:12;7.47;;;3.22;;
36551;SDS011;22559;54.176;12.102;2023-07-02T11:50:38;7.22;;;2.92;;
36551;SDS011;22559;54.176;12.102;2023-07-02T11:53:03;5.88;;;3.42;;
36551;SDS011;22559;54.176;12.102;2023-07-02T11:55:29;7.03;;;3.13;;
36551;SDS011;22559;54.176;12.102;2023-07-02T11:57:54;4.43;;;3.30;;
36551;SDS011;22559;54.176;12.102;2023-07-02T12:00:20;5.13;;;4.17;;
36551;SDS011;22559;54.176;12.102;2023-07-02T12:02:46;7.77;;;4.10;;
36551;SDS011;22559;54.176;12.102;2023-07-02T12:05:11;8.23;;;3.90;;
36551;SDS011;22559;54.176;12.102;2023-07-02T12:07:37;8.55;;;4.80;;
36551;SDS011;22559;54.176;12.102;2023-07-02T12:10:03;12.80;;;4.65;;
36551;SDS011;22559;54.176;12.102;2023-07-02T12:12:29;12.18;;;4.53;;
36551;SDS011;22559;54.176;12.102;2023-07-02T12:14:54;8.52;;;4.25;;
36551;SDS011;22559;54.176;12.102;2023-07-02T12:17:20;8.05;;;3.95;;
36551;SDS011;22559;54.176;12.102;2023-07-02T12:19:46;8.23;;;3.90;;
36551;SDS011;22559;54.176;12.102;2023-07-02T12:22:11;9.07;;;4.73;;
36551;SDS011;22559;54.176;12.102;2023-07-02T12:24:40;10.07;;;4.57;;
36551;SDS011;22559;54.176;12.102;2023-07-02T12:27:06;12.37;;;4.67;;
36551;SDS011;22559;54.176;12.102;2023-07-02T12:29:31;10.17;;;4.63;;
36551;SDS011;22559;54.176;12.102;2023-07-02T12:31:57;10.93;;;4.63;;
36551;SDS011;22559;54.176;12.102;2023-07-02T12:34:23;11.68;;;3.90;;
36551;SDS011;22559;54.176;12.102;2023-07-02T12:36:48;8.55;;;3.42;;
36551;SDS011;22559;54.176;12.102;2023-07-02T12:39:14;10.10;;;3.70;;
36551;SDS011;22559;54.176;12.102;2023-07-02T12:41:39;7.25;;;3.70;;
36551;SDS011;22559;54.176;12.102;2023-07-02T12:44:05;6.75;;;2.95;;
36551;SDS011;22559;54.176;12.102;2023-07-02T12:46:31;12.07;;;4.18;;
36551;SDS011;22559;54.176;12.102;2023-07-02T12:48:57;7.50;;;3.50;;
36551;SDS011;22559;54.176;12.102;2023-07-02T12:51:22;5.85;;;3.75;;
36551;SDS011;22559;54.176;12.102;2023-07-02T12:53:48;8.48;;;3.40;;
36551;SDS011;22559;54.176;12.102;2023-07-02T12:56:14;3.53;;;2.80;;
36551;SDS011;22559;54.176;12.102;2023-07-02T12:58:39;6.28;;;3.00;;
36551;SDS011;22559;54.176;12.102;2023-07-02T13:01:05;7.43;;;3.42;;
36551;SDS011;22559;54.176;12.102;2023-07-02T13:03:31;6.28;;;3.55;;
36551;SDS011;22559;54.176;12.102;2023-07-02T13:05:56;4.22;;;2.90;;
36551;SDS011;22559;54.176;12.102;2023-07-02T13:08:22;7.03;;;3.63;;
36551;SDS011;22559;54.176;12.102;2023-07-02T13:10:47;6.18;;;3.25;;
36551;SDS011;22559;54.176;12.102;2023-07-02T13:13:13;7.47;;;3.08;;
36551;SDS011;22559;54.176;12.102;2023-07-02T13:15:38;8.35;;;3.35;;
36551;SDS011;22559;54.176;12.102;2023-07-02T13:18:04;7.75;;;2.55;;
36551;SDS011;22559;54.176;12.102;2023-07-02T13:20:30;3.78;;;2.65;;
36551;SDS011;22559;54.176;12.102;2023-07-02T13:22:55;6.97;;;2.83;;
36551;SDS011;22559;54.176;12.102;2023-07-02T13:25:21;6.03;;;2.50;;
36551;SDS011;22559;54.176;12.102;2023-07-02T13:27:47;6.22;;;2.67;;
36551;SDS011;22559;54.176;12.102;2023-07-02T13:30:12;5.45;;;2.80;;
36551;SDS011;22559;54.176;12.102;2023-07-02T13:32:38;7.43;;;2.42;;
36551;SDS011;22559;54.176;12.102;2023-07-02T13:35:04;8.02;;;3.08;;
36551;SDS011;22559;54.176;12.102;2023-07-02T13:37:30;10.55;;;3.08;;
36551;SDS011;22559;54.176;12.102;2023-07-02T13:39:55;12.98;;;3.63;;
36551;SDS011;22559;54.176;12.102;2023-07-02T13:42:21;7.32;;;3.60;;
36551;SDS011;22559;54.176;12.102;2023-07-02T13:44:46;9.73;;;3.33;;
36551;SDS011;22559;54.176;12.102;2023-07-02T13:47:12;9.65;;;3.50;;
36551;SDS011;22559;54.176;12.102;2023-07-02T13:49:38;6.40;;;2.85;;
36551;SDS011;22559;54.176;12.102;2023-07-02T13:52:04;15.73;;;3.70;;
36551;SDS011;22559;54.176;12.102;2023-07-02T13:54:30;3.95;;;2.88;;
36551;SDS011;22559;54.176;12.102;2023-07-02T13:56:56;8.98;;;2.72;;
36551;SDS011;22559;54.176;12.102;2023-07-02T13:59:22;7.68;;;2.85;;
36551;SDS011;22559;54.176;12.102;2023-07-02T14:01:48;5.82;;;2.55;;
36551;SDS011;22559;54.176;12.102;2023-07-02T14:04:14;5.93;;;2.78;;
36551;SDS011;22559;54.176;12.102;2023-07-02T14:06:41;6.47;;;2.45;;
36551;SDS011;22559;54.176;12.102;2023-07-02T14:09:08;6.03;;;3.30;;
36551;SDS011;22559;54.176;12.102;2023-07-02T14:11:34;7.65;;;2.97;;
36551;SDS011;22559;54.176;12.102;2023-07-02T14:14:06;7.97;;;2.80;;
36551;SDS011;22559;54.176;12.102;2023-07-02T14:16:31;7.28;;;2.60;;
36551;SDS011;22559;54.176;12.102;2023-07-02T14:18:57;5.93;;;3.10;;
36551;SDS011;22559;54.176;12.102;2023-07-02T14:21:23;7.22;;;2.65;;
36551;SDS011;22559;54.176;12.102;2023-07-02T14:23:49;8.20;;;2.90;;
36551;SDS011;22559;54.176;12.102;2023-07-02T14:26:14;5.45;;;2.92;;
36551;SDS011;22559;54.176;12.102;2023-07-02T14:28:40;4.60;;;2.50;;
36551;SDS011;22559;54.176;12.102;2023-07-02T14:31:06;6.18;;;2.35;;
36551;SDS011;22559;54.176;12.102;2023-07-02T14:33:32;5.15;;;2.22;;
36551;SDS011;22559;54.176;12.102;2023-07-02T14:35:59;10.05;;;3.13;;